sensor_id;sensor_type;location;lat;lon;timestamp;pressure;altitude;pressure_sealevel;temperature;humidity
9462;BME280;4769;42.660;23.262;2023-04-26T00:00:41;93066.53;;;10.44;100.00
9462;BME280;4769;42.660;23.262;2023-04-26T00:03:07;93063.13;;;10.43;100.00
9462;BME280;4769;42.660;23.262;2023-04-26T00:05:33;93064.44;;;10.46;100.00
9462;BME280;4769;42.660;23.262;2023-04-26T00:07:58;93060.47;;;10.48;100.00
9462;BME280;4769;42.660;23.262;2023-04-26T00:10:24;93057.56;;;10.30;100.00
9462;BME280;4769;42.660;23.262;2023-04-26T00:12:50;93053.38;;;10.14;100.00
9462;BME280;4769;42.660;23.262;2023-04-26T00:15:15;93050.47;;;10.20;100.00
9462;BME280;4769;42.660;23.262;2023-04-26T00:17:44;93044.38;;;10.00;100.00
9462;BME280;4769;42.660;23.262;2023-04-26T00:20:10;93035.69;;;10.09;100.00
9462;BME280;4769;42.660;23.262;2023-04-26T00:22:36;93038.09;;;10.11;100.00
9462;BME280;4769;42.660;23.262;2023-04-26T00:25:02;93035.19;;;10.07;100.00
9462;BME280;4769;42.660;23.262;2023-04-26T00:27:28;93039.66;;;10.12;100.00
9462;BME280;4769;42.660;23.262;2023-04-26T00:29:53;93030.72;;;10.13;100.00
9462;BME280;4769;42.660;23.262;2023-04-26T00:32:19;93022.28;;;10.16;100.00
9462;BME280;4769;42.660;23.262;2023-04-26T00:34:48;93029.13;;;10.17;100.00
9462;BME280;4769;42.660;23.262;2023-04-26T00:37:13;93035.19;;;10.12;100.00
9462;BME280;4769;42.660;23.262;2023-04-26T00:39:39;93034.34;;;10.02;100.00
9462;BME280;4769;42.660;23.262;2023-04-26T00:42:05;93040.16;;;10.04;100.00
9462;BME280;4769;42.660;23.262;2023-04-26T00:44:30;93039.13;;;10.05;100.00
9462;BME280;4769;42.660;23.262;2023-04-26T00:46:56;93033.06;;;10.09;100.00
9462;BME280;4769;42.660;23.262;2023-04-26T00:49:23;93036.19;;;9.96;100.00
9462;BME280;4769;42.660;23.262;2023-04-26T00:51:52;93039.09;;;9.95;100.00
9462;BME280;4769;42.660;23.262;2023-04-26T00:54:19;93036.72;;;9.88;100.00
9462;BME280;4769;42.660;23.262;2023-04-26T00:56:45;93027.50;;;9.81;100.00
9462;BME280;4769;42.660;23.262;2023-04-26T00:59:11;93037.75;;;9.77;100.00
9462;BME280;4769;42.660;23.262;2023-04-26T01:01:37;93033.03;;;9.74;100.00
9462;BME280;4769;42.660;23.262;2023-04-26T01:04:03;93031.72;;;9.77;100.00
9462;BME280;4769;42.660;23.262;2023-04-26T01:06:32;93035.41;;;9.76;100.00
9462;BME280;4769;42.660;23.262;2023-04-26T01:09:02;93037.47;;;9.74;100.00
9462;BME280;4769;42.660;23.262;2023-04-26T01:11:28;93046.19;;;9.89;100.00
9462;BME280;4769;42.660;23.262;2023-04-26T01:13:55;93050.69;;;9.99;100.00
9462;BME280;4769;42.660;23.262;2023-04-26T01:16:22;93040.88;;;9.59;100.00
9462;BME280;4769;42.660;23.262;2023-04-26T01:18:50;93027.66;;;9.34;100.00
9462;BME280;4769;42.660;23.262;2023-04-26T01:21:22;93022.66;;;9.43;100.00
9462;BME280;4769;42.660;23.262;2023-04-26T01:23:51;93020.34;;;9.46;100.00
9462;BME280;4769;42.660;23.262;2023-04-26T01:26:17;93019.78;;;9.44;100.00
9462;BME280;4769;42.660;23.262;2023-04-26T01:28:43;93022.72;;;9.48;100.00
9462;BME280;4769;42.660;23.262;2023-04-26T01:31:09;93019.28;;;9.52;100.00
9462;BME280;4769;42.660;23.262;2023-04-26T01:33:34;93022.19;;;9.56;100.00
9462;BME280;4769;42.660;23.262;2023-04-26T01:36:00;93042.75;;;9.69;100.00
9462;BME280;4769;42.660;23.262;2023-04-26T01:38:26;93037.97;;;9.61;100.00
9462;BME280;4769;42.660;23.262;2023-04-26T01:40:54;93039.84;;;9.65;100.00
9462;BME280;4769;42.660;23.262;2023-04-26T01:43:20;93041.69;;;9.70;100.00
9462;BME280;4769;42.660;23.262;2023-04-26T01:45:46;93038.28;;;9.69;100.00
9462;BME280;4769;42.660;23.262;2023-04-26T01:48:11;93034.34;;;9.72;100.00
9462;BME280;4769;42.660;23.262;2023-04-26T01:50:37;93029.84;;;9.82;100.00
9462;BME280;4769;42.660;23.262;2023-04-26T01:53:03;93021.66;;;9.59;99.89
9462;BME280;4769;42.660;23.262;2023-04-26T01:55:28;93010.03;;;9.35;100.00
9462;BME280;4769;42.660;23.262;2023-04-26T01:57:57;93018.44;;;9.27;100.00
9462;BME280;4769;42.660;23.262;2023-04-26T02:00:22;93014.22;;;9.31;100.00
9462;BME280;4769;42.660;23.262;2023-04-26T02:02:48;93008.41;;;9.24;100.00
9462;BME280;4769;42.660;23.262;2023-04-26T02:05:14;93002.41;;;9.38;100.00
9462;BME280;4769;42.660;23.262;2023-04-26T02:07:39;93006.88;;;9.38;100.00
9462;BME280;4769;42.660;23.262;2023-04-26T02:10:07;93013.44;;;9.40;100.00
9462;BME280;4769;42.660;23.262;2023-04-26T02:12:32;93017.69;;;9.41;100.00
9462;BME280;4769;42.660;23.262;2023-04-26T02:15:01;93013.75;;;9.49;100.00
9462;BME280;4769;42.660;23.262;2023-04-26T02:17:27;93008.41;;;9.29;100.00
9462;BME280;4769;42.660;23.262;2023-04-26T02:19:53;92996.59;;;9.26;100.00
9462;BME280;4769;42.660;23.262;2023-04-26T02:22:19;93004.53;;;9.46;100.00
9462;BME280;4769;42.660;23.262;2023-04-26T02:24:45;93007.47;;;9.65;100.00
9462;BME280;4769;42.660;23.262;2023-04-26T02:27:11;93005.91;;;9.74;100.00
9462;BME280;4769;42.660;23.262;2023-04-26T02:29:37;93008.28;;;9.75;100.00
9462;BME280;4769;42.660;23.262;2023-04-26T02:32:05;93014.34;;;9.76;100.00
9462;BME280;4769;42.660;23.262;2023-04-26T02:34:31;93011.72;;;9.81;100.00
9462;BME280;4769;42.660;23.262;2023-04-26T02:36:56;93015.91;;;9.82;100.00
9462;BME280;4769;42.660;23.262;2023-04-26T02:39:22;93009.34;;;9.79;100.00
9462;BME280;4769;42.660;23.262;2023-04-26T02:41:48;93017.50;;;9.83;100.00
9462;BME280;4769;42.660;23.262;2023-04-26T02:44:13;93010.13;;;9.95;100.00
9462;BME280;4769;42.660;23.262;2023-04-26T02:46:44;93010.66;;;9.97;100.00
9462;BME280;4769;42.660;23.262;2023-04-26T02:49:15;93000.94;;;9.97;100.00
9462;BME280;4769;42.660;23.262;2023-04-26T02:51:41;92996.69;;;9.91;100.00
9462;BME280;4769;42.660;23.262;2023-04-26T02:54:06;92994.84;;;9.97;100.00
9462;BME280;4769;42.660;23.262;2023-04-26T02:56:34;92993.53;;;9.84;100.00
9462;BME280;4769;42.660;23.262;2023-04-26T02:58:59;92990.41;;;9.87;100.00
9462;BME280;4769;42.660;23.262;2023-04-26T03:01:25;92987.72;;;9.82;100.00
9462;BME280;4769;42.660;23.262;2023-04-26T03:03:51;92988.78;;;9.61;100.00
9462;BME280;4769;42.660;23.262;2023-04-26T03:06:19;93002.69;;;9.42;100.00
9462;BME280;4769;42.660;23.262;2023-04-26T03:08:45;92989.03;;;9.50;100.00
9462;BME280;4769;42.660;23.262;2023-04-26T03:11:10;92994.84;;;9.77;100.00
9462;BME280;4769;42.660;23.262;2023-04-26T03:13:37;92998.00;;;9.94;100.00
9462;BME280;4769;42.660;23.262;2023-04-26T03:16:03;92995.38;;;9.94;100.00
9462;BME280;4769;42.660;23.262;2023-04-26T03:18:29;92994.06;;;9.96;100.00
9462;BME280;4769;42.660;23.262;2023-04-26T03:20:55;92998.81;;;9.99;100.00
9462;BME280;4769;42.660;23.262;2023-04-26T03:23:24;93002.50;;;9.98;100.00
9462;BME280;4769;42.660;23.262;2023-04-26T03:25:50;92994.84;;;9.97;100.00
9462;BME280;4769;42.660;23.262;2023-04-26T03:28:16;92995.38;;;9.94;100.00
9462;BME280;4769;42.660;23.262;2023-04-26T03:30:42;92998.03;;;10.04;100.00
9462;BME280;4769;42.660;23.262;2023-04-26T03:33:11;92999.88;;;10.03;100.00
9462;BME280;4769;42.660;23.262;2023-04-26T03:35:37;92999.31;;;9.76;100.00
9462;BME280;4769;42.660;23.262;2023-04-26T03:38:03;93005.91;;;9.79;100.00
9462;BME280;4769;42.660;23.262;2023-04-26T03:40:31;92993.81;;;9.83;100.00
9462;BME280;4769;42.660;23.262;2023-04-26T03:42:57;93008.81;;;9.97;100.00
9462;BME280;4769;42.660;23.262;2023-04-26T03:45:23;93010.66;;;10.02;100.00
9462;BME280;4769;42.660;23.262;2023-04-26T03:47:49;93010.41;;;10.03;100.00
9462;BME280;4769;42.660;23.262;2023-04-26T03:50:15;93016.50;;;10.14;100.00
9462;BME280;4769;42.660;23.262;2023-04-26T03:52:41;93001.75;;;10.13;100.00
9462;BME280;4769;42.660;23.262;2023-04-26T03:55:07;93010.97;;;10.20;100.00
9462;BME280;4769;42.660;23.262;2023-04-26T03:57:36;93011.22;;;10.24;100.00
9462;BME280;4769;42.660;23.262;2023-04-26T04:00:01;93020.19;;;10.28;100.00
9462;BME280;4769;42.660;23.262;2023-04-26T04:02:27;93026.22;;;10.23;100.00
9462;BME280;4769;42.660;23.262;2023-04-26T04:04:53;93030.97;;;10.36;100.00
9462;BME280;4769;42.660;23.262;2023-04-26T04:07:18;93022.28;;;10.16;100.00
9462;BME280;4769;42.660;23.262;2023-04-26T04:09:44;93023.31;;;9.95;100.00
9462;BME280;4769;42.660;23.262;2023-04-26T04:12:10;93025.66;;;9.96;100.00
9462;BME280;4769;42.660;23.262;2023-04-26T04:14:38;93030.19;;;10.21;100.00
9462;BME280;4769;42.660;23.262;2023-04-26T04:17:04;93023.88;;;10.27;100.00
9462;BME280;4769;42.660;23.262;2023-04-26T04:19:29;93032.03;;;10.20;100.00
9462;BME280;4769;42.660;23.262;2023-04-26T04:21:55;93035.44;;;10.21;100.00
9462;BME280;4769;42.660;23.262;2023-04-26T04:24:21;93035.47;;;10.41;100.00
9462;BME280;4769;42.660;23.262;2023-04-26T04:26:46;93033.59;;;10.41;100.00
9462;BME280;4769;42.660;23.262;2023-04-26T04:29:12;93040.44;;;10.52;100.00
9462;BME280;4769;42.660;23.262;2023-04-26T04:31:41;93042.28;;;10.62;100.00
9462;BME280;4769;42.660;23.262;2023-04-26T04:34:07;93039.13;;;10.65;100.00
9462;BME280;4769;42.660;23.262;2023-04-26T04:36:32;93051.50;;;10.59;100.00
9462;BME280;4769;42.660;23.262;2023-04-26T04:38:58;93050.97;;;10.72;100.00
9462;BME280;4769;42.660;23.262;2023-04-26T04:41:24;93038.53;;;10.78;100.00
9462;BME280;4769;42.660;23.262;2023-04-26T04:43:50;93038.00;;;10.86;100.00
9462;BME280;4769;42.660;23.262;2023-04-26T04:46:16;93049.59;;;10.90;100.00
9462;BME280;4769;42.660;23.262;2023-04-26T04:48:44;93052.44;;;11.03;100.00
9462;BME280;4769;42.660;23.262;2023-04-26T04:51:10;93056.94;;;11.03;100.00
9462;BME280;4769;42.660;23.262;2023-04-26T04:53:35;93050.63;;;11.04;100.00
9462;BME280;4769;42.660;23.262;2023-04-26T04:56:01;93054.78;;;11.15;100.00
9462;BME280;4769;42.660;23.262;2023-04-26T04:58:27;93052.41;;;11.23;100.00
9462;BME280;4769;42.660;23.262;2023-04-26T05:00:52;93049.81;;;11.08;100.00
9462;BME280;4769;42.660;23.262;2023-04-26T05:03:18;93041.91;;;11.03;100.00
9462;BME280;4769;42.660;23.262;2023-04-26T05:05:47;93053.97;;;11.24;100.00
9462;BME280;4769;42.660;23.262;2023-04-26T05:08:12;93056.25;;;11.46;100.00
9462;BME280;4769;42.660;23.262;2023-04-26T05:10:38;93049.72;;;11.33;100.00
9462;BME280;4769;42.660;23.262;2023-04-26T05:13:04;93048.91;;;11.38;100.00
9462;BME280;4769;42.660;23.262;2023-04-26T05:15:30;93049.88;;;11.57;100.00
9462;BME280;4769;42.660;23.262;2023-04-26T05:17:55;93055.19;;;11.62;100.00
9462;BME280;4769;42.660;23.262;2023-04-26T05:20:21;93053.50;;;11.81;100.00
9462;BME280;4769;42.660;23.262;2023-04-26T05:22:49;93049.19;;;11.95;99.21
9462;BME280;4769;42.660;23.262;2023-04-26T05:25:15;93053.78;;;12.18;98.35
9462;BME280;4769;42.660;23.262;2023-04-26T05:27:41;93053.53;;;12.14;98.96
9462;BME280;4769;42.660;23.262;2023-04-26T05:30:08;93062.41;;;11.90;98.69
9462;BME280;4769;42.660;23.262;2023-04-26T05:32:34;93051.63;;;12.20;98.07
9462;BME280;4769;42.660;23.262;2023-04-26T05:34:59;93054.59;;;12.47;97.58
9462;BME280;4769;42.660;23.262;2023-04-26T05:37:25;93052.25;;;12.74;96.64
9462;BME280;4769;42.660;23.262;2023-04-26T05:39:53;93054.69;;;12.99;95.71
9462;BME280;4769;42.660;23.262;2023-04-26T05:42:19;93060.78;;;13.23;94.19
9462;BME280;4769;42.660;23.262;2023-04-26T05:44:45;93058.88;;;13.28;90.72
9462;BME280;4769;42.660;23.262;2023-04-26T05:47:10;93064.66;;;13.30;89.51
9462;BME280;4769;42.660;23.262;2023-04-26T05:49:36;93070.41;;;13.37;87.45
9462;BME280;4769;42.660;23.262;2023-04-26T05:52:02;93072.44;;;13.22;85.78
9462;BME280;4769;42.660;23.262;2023-04-26T05:54:28;93079.59;;;12.93;85.08
9462;BME280;4769;42.660;23.262;2023-04-26T05:56:56;93073.59;;;12.82;83.11
9462;BME280;4769;42.660;23.262;2023-04-26T05:59:22;93073.38;;;12.79;80.80
9462;BME280;4769;42.660;23.262;2023-04-26T06:01:47;93070.50;;;12.42;82.19
9462;BME280;4769;42.660;23.262;2023-04-26T06:04:13;93080.56;;;12.40;79.63
9462;BME280;4769;42.660;23.262;2023-04-26T06:06:39;93079.06;;;12.29;78.71
9462;BME280;4769;42.660;23.262;2023-04-26T06:09:04;93078.09;;;12.53;80.86
9462;BME280;4769;42.660;23.262;2023-04-26T06:11:30;93082.34;;;12.83;79.80
9462;BME280;4769;42.660;23.262;2023-04-26T06:13:58;93070.47;;;12.75;80.90
9462;BME280;4769;42.660;23.262;2023-04-26T06:16:24;93087.19;;;12.71;79.96
9462;BME280;4769;42.660;23.262;2023-04-26T06:18:50;93085.03;;;12.73;81.09
9462;BME280;4769;42.660;23.262;2023-04-26T06:21:15;93089.34;;;12.69;80.08
9462;BME280;4769;42.660;23.262;2023-04-26T06:23:41;93081.91;;;12.37;81.33
9462;BME280;4769;42.660;23.262;2023-04-26T06:26:07;93093.34;;;12.28;82.23
9462;BME280;4769;42.660;23.262;2023-04-26T06:28:32;93085.47;;;12.23;80.67
9462;BME280;4769;42.660;23.262;2023-04-26T06:31:01;93095.66;;;12.39;81.83
9462;BME280;4769;42.660;23.262;2023-04-26T06:33:26;93091.59;;;12.52;80.36
9462;BME280;4769;42.660;23.262;2023-04-26T06:35:52;93087.53;;;12.26;81.40
9462;BME280;4769;42.660;23.262;2023-04-26T06:38:18;93105.41;;;12.39;79.96
9462;BME280;4769;42.660;23.262;2023-04-26T06:40:44;93091.97;;;12.35;81.14
9462;BME280;4769;42.660;23.262;2023-04-26T06:43:09;93099.53;;;12.08;81.57
9462;BME280;4769;42.660;23.262;2023-04-26T06:45:35;93098.28;;;11.96;79.78
9462;BME280;4769;42.660;23.262;2023-04-26T06:48:04;93103.72;;;12.14;80.50
9462;BME280;4769;42.660;23.262;2023-04-26T06:50:30;93101.16;;;12.43;78.72
9462;BME280;4769;42.660;23.262;2023-04-26T06:52:55;93101.63;;;12.50;77.11
9462;BME280;4769;42.660;23.262;2023-04-26T06:55:21;93096.50;;;12.30;77.12
9462;BME280;4769;42.660;23.262;2023-04-26T06:57:48;93113.00;;;12.50;79.35
9462;BME280;4769;42.660;23.262;2023-04-26T07:00:14;93102.53;;;13.02;77.92
9462;BME280;4769;42.660;23.262;2023-04-26T07:02:40;93117.66;;;13.25;75.35
9462;BME280;4769;42.660;23.262;2023-04-26T07:05:09;93115.72;;;13.07;73.64
9462;BME280;4769;42.660;23.262;2023-04-26T07:07:35;93108.47;;;13.18;72.96
9462;BME280;4769;42.660;23.262;2023-04-26T07:10:01;93112.47;;;13.15;72.05
9462;BME280;4769;42.660;23.262;2023-04-26T07:12:27;93112.19;;;12.83;73.66
9462;BME280;4769;42.660;23.262;2023-04-26T07:14:53;93109.28;;;12.85;74.20
9462;BME280;4769;42.660;23.262;2023-04-26T07:17:19;93102.31;;;12.94;71.42
9462;BME280;4769;42.660;23.262;2023-04-26T07:19:45;93101.44;;;13.08;72.01
9462;BME280;4769;42.660;23.262;2023-04-26T07:22:13;93113.91;;;13.03;71.41
9462;BME280;4769;42.660;23.262;2023-04-26T07:24:39;93110.75;;;12.67;68.96
9462;BME280;4769;42.660;23.262;2023-04-26T07:27:04;93114.53;;;12.56;68.10
9462;BME280;4769;42.660;23.262;2023-04-26T07:29:30;93100.56;;;12.84;66.47
9462;BME280;4769;42.660;23.262;2023-04-26T07:31:56;93105.75;;;12.27;68.49
9462;BME280;4769;42.660;23.262;2023-04-26T07:34:25;93117.56;;;12.01;68.73
9462;BME280;4769;42.660;23.262;2023-04-26T07:36:52;93118.56;;;12.05;70.74
9462;BME280;4769;42.660;23.262;2023-04-26T07:39:20;93115.22;;;12.33;69.13
9462;BME280;4769;42.660;23.262;2023-04-26T07:41:46;93123.53;;;12.17;67.98
9462;BME280;4769;42.660;23.262;2023-04-26T07:44:11;93130.25;;;11.99;69.13
9462;BME280;4769;42.660;23.262;2023-04-26T07:46:37;93131.75;;;12.15;69.70
9462;BME280;4769;42.660;23.262;2023-04-26T07:49:03;93140.00;;;12.04;68.72
9462;BME280;4769;42.660;23.262;2023-04-26T07:51:28;93130.09;;;12.24;69.87
9462;BME280;4769;42.660;23.262;2023-04-26T07:53:54;93126.28;;;12.79;68.64
9462;BME280;4769;42.660;23.262;2023-04-26T07:56:23;93121.81;;;13.36;67.70
9462;BME280;4769;42.660;23.262;2023-04-26T07:58:49;93120.03;;;13.74;65.22
9462;BME280;4769;42.660;23.262;2023-04-26T08:01:15;93125.50;;;13.59;65.25
9462;BME280;4769;42.660;23.262;2023-04-26T08:03:40;93129.81;;;13.78;64.91
9462;BME280;4769;42.660;23.262;2023-04-26T08:06:08;93128.09;;;13.64;64.99
9462;BME280;4769;42.660;23.262;2023-04-26T08:08:34;93127.75;;;13.23;64.99
9462;BME280;4769;42.660;23.262;2023-04-26T08:10:59;93132.22;;;12.94;64.97
9462;BME280;4769;42.660;23.262;2023-04-26T08:13:28;93135.59;;;13.05;66.15
9462;BME280;4769;42.660;23.262;2023-04-26T08:15:53;93134.94;;;13.46;64.85
9462;BME280;4769;42.660;23.262;2023-04-26T08:18:19;93124.13;;;13.38;65.55
9462;BME280;4769;42.660;23.262;2023-04-26T08:20:45;93121.72;;;13.18;64.39
9462;BME280;4769;42.660;23.262;2023-04-26T08:23:10;93126.34;;;13.31;64.16
9462;BME280;4769;42.660;23.262;2023-04-26T08:25:36;93135.19;;;13.45;63.75
9462;BME280;4769;42.660;23.262;2023-04-26T08:28:02;93134.72;;;13.14;63.09
9462;BME280;4769;42.660;23.262;2023-04-26T08:30:30;93129.19;;;13.11;64.83
9462;BME280;4769;42.660;23.262;2023-04-26T08:32:56;93129.84;;;13.50;64.36
9462;BME280;4769;42.660;23.262;2023-04-26T08:35:21;93131.31;;;13.37;64.05
9462;BME280;4769;42.660;23.262;2023-04-26T08:37:47;93135.38;;;13.53;64.09
9462;BME280;4769;42.660;23.262;2023-04-26T08:40:13;93128.94;;;13.59;63.78
9462;BME280;4769;42.660;23.262;2023-04-26T08:42:39;93138.44;;;14.07;62.84
9462;BME280;4769;42.660;23.262;2023-04-26T08:45:07;93138.22;;;14.04;62.68
9462;BME280;4769;42.660;23.262;2023-04-26T08:47:39;93129.69;;;14.31;61.37
9462;BME280;4769;42.660;23.262;2023-04-26T08:50:10;93142.59;;;13.95;62.60
9462;BME280;4769;42.660;23.262;2023-04-26T08:52:37;93128.50;;;13.76;63.10
9462;BME280;4769;42.660;23.262;2023-04-26T08:55:06;93126.75;;;13.66;61.89
9462;BME280;4769;42.660;23.262;2023-04-26T08:57:32;93132.38;;;13.83;62.93
9462;BME280;4769;42.660;23.262;2023-04-26T08:59:58;93123.84;;;14.10;61.52
9462;BME280;4769;42.660;23.262;2023-04-26T09:02:26;93123.75;;;14.15;61.47
9462;BME280;4769;42.660;23.262;2023-04-26T09:04:54;93129.34;;;13.71;60.84
9462;BME280;4769;42.660;23.262;2023-04-26T09:07:21;93132.22;;;13.51;61.75
9462;BME280;4769;42.660;23.262;2023-04-26T09:09:52;93131.81;;;13.39;62.37
9462;BME280;4769;42.660;23.262;2023-04-26T09:12:19;93153.31;;;13.61;63.75
9462;BME280;4769;42.660;23.262;2023-04-26T09:14:45;93140.75;;;13.72;61.73
9462;BME280;4769;42.660;23.262;2023-04-26T09:17:35;93141.31;;;14.11;60.38
9462;BME280;4769;42.660;23.262;2023-04-26T09:20:17;93134.69;;;14.51;59.68
9462;BME280;4769;42.660;23.262;2023-04-26T09:22:43;93148.88;;;14.23;59.69
9462;BME280;4769;42.660;23.262;2023-04-26T09:25:11;93145.72;;;13.97;61.21
9462;BME280;4769;42.660;23.262;2023-04-26T09:27:39;93142.78;;;14.22;60.25
9462;BME280;4769;42.660;23.262;2023-04-26T09:30:07;93144.16;;;14.38;59.38
9462;BME280;4769;42.660;23.262;2023-04-26T09:32:51;93143.88;;;14.77;59.07
9462;BME280;4769;42.660;23.262;2023-04-26T09:35:24;93149.06;;;15.00;58.89
9462;BME280;4769;42.660;23.262;2023-04-26T09:37:51;93151.91;;;15.04;57.55
9462;BME280;4769;42.660;23.262;2023-04-26T09:40:20;93140.41;;;14.76;58.09
9462;BME280;4769;42.660;23.262;2023-04-26T09:42:46;93140.72;;;14.38;58.44
9462;BME280;4769;42.660;23.262;2023-04-26T09:45:20;93138.81;;;14.94;56.37
9462;BME280;4769;42.660;23.262;2023-04-26T09:47:46;93132.75;;;15.07;58.22
9462;BME280;4769;42.660;23.262;2023-04-26T09:50:11;93135.03;;;15.13;56.42
9462;BME280;4769;42.660;23.262;2023-04-26T09:52:46;93129.63;;;15.05;56.48
9462;BME280;4769;42.660;23.262;2023-04-26T09:55:25;93135.38;;;14.93;55.66
9462;BME280;4769;42.660;23.262;2023-04-26T09:57:50;93128.25;;;15.07;55.35
9462;BME280;4769;42.660;23.262;2023-04-26T10:00:17;93121.13;;;15.03;54.38
9462;BME280;4769;42.660;23.262;2023-04-26T10:02:43;93141.19;;;15.09;55.26
9462;BME280;4769;42.660;23.262;2023-04-26T10:05:09;93120.84;;;14.72;55.00
9462;BME280;4769;42.660;23.262;2023-04-26T10:07:35;93127.44;;;15.39;54.62
9462;BME280;4769;42.660;23.262;2023-04-26T10:10:04;93125.09;;;15.37;52.58
9462;BME280;4769;42.660;23.262;2023-04-26T10:12:31;93116.06;;;15.20;52.42
9462;BME280;4769;42.660;23.262;2023-04-26T10:14:57;93112.78;;;15.09;52.67
9462;BME280;4769;42.660;23.262;2023-04-26T10:17:22;93126.19;;;15.77;50.96
9462;BME280;4769;42.660;23.262;2023-04-26T10:19:51;93120.59;;;15.65;51.26
9462;BME280;4769;42.660;23.262;2023-04-26T10:22:21;93113.69;;;15.50;51.15
9462;BME280;4769;42.660;23.262;2023-04-26T10:24:48;93116.84;;;15.79;50.38
9462;BME280;4769;42.660;23.262;2023-04-26T10:27:46;93115.91;;;15.30;51.30
9462;BME280;4769;42.660;23.262;2023-04-26T10:30:13;93114.78;;;14.85;51.26
9462;BME280;4769;42.660;23.262;2023-04-26T10:38:41;93128.34;;;15.48;50.00
9462;BME280;4769;42.660;23.262;2023-04-26T10:41:28;93112.41;;;15.48;49.87
9462;BME280;4769;42.660;23.262;2023-04-26T10:43:58;93122.88;;;15.26;50.74
9462;BME280;4769;42.660;23.262;2023-04-26T10:46:39;93128.25;;;15.21;48.78
9462;BME280;4769;42.660;23.262;2023-04-26T10:49:16;93112.97;;;14.99;49.31
9462;BME280;4769;42.660;23.262;2023-04-26T10:52:09;93109.44;;;15.04;49.69
9462;BME280;4769;42.660;23.262;2023-04-26T10:54:49;93106.75;;;14.90;49.40
9462;BME280;4769;42.660;23.262;2023-04-26T10:57:15;93109.66;;;15.07;49.37
9462;BME280;4769;42.660;23.262;2023-04-26T11:03:08;93112.41;;;15.16;47.03
9462;BME280;4769;42.660;23.262;2023-04-26T11:05:36;93109.69;;;15.21;48.47
9462;BME280;4769;42.660;23.262;2023-04-26T11:08:04;93118.06;;;15.28;48.66
9462;BME280;4769;42.660;23.262;2023-04-26T11:10:29;93117.31;;;15.09;48.26
9462;BME280;4769;42.660;23.262;2023-04-26T11:12:59;93109.13;;;14.92;48.99
9462;BME280;4769;42.660;23.262;2023-04-26T11:15:25;93110.44;;;14.76;49.39
9462;BME280;4769;42.660;23.262;2023-04-26T11:17:51;93110.50;;;14.89;48.99
9462;BME280;4769;42.660;23.262;2023-04-26T11:20:20;93107.13;;;14.84;47.82
9462;BME280;4769;42.660;23.262;2023-04-26T11:22:45;93106.41;;;15.10;47.32
9462;BME280;4769;42.660;23.262;2023-04-26T11:25:11;93115.88;;;15.16;46.46
9462;BME280;4769;42.660;23.262;2023-04-26T11:27:38;93108.78;;;15.12;46.73
9462;BME280;4769;42.660;23.262;2023-04-26T11:30:05;93093.81;;;15.02;46.75
9462;BME280;4769;42.660;23.262;2023-04-26T11:32:32;93112.22;;;15.12;47.72
9462;BME280;4769;42.660;23.262;2023-04-26T11:34:59;93107.81;;;15.21;48.46
9462;BME280;4769;42.660;23.262;2023-04-26T11:37:28;93104.53;;;15.56;48.03
9462;BME280;4769;42.660;23.262;2023-04-26T11:39:55;93117.69;;;15.34;48.54
9462;BME280;4769;42.660;23.262;2023-04-26T11:42:24;93117.16;;;14.87;49.30
9462;BME280;4769;42.660;23.262;2023-04-26T11:44:50;93121.84;;;14.76;49.57
9462;BME280;4769;42.660;23.262;2023-04-26T11:47:16;93108.81;;;14.61;49.85
9462;BME280;4769;42.660;23.262;2023-04-26T11:49:43;93115.97;;;14.79;48.45
9462;BME280;4769;42.660;23.262;2023-04-26T11:52:09;93116.97;;;14.83;48.53
9462;BME280;4769;42.660;23.262;2023-04-26T11:54:37;93114.88;;;15.12;48.57
9462;BME280;4769;42.660;23.262;2023-04-26T11:57:12;93113.31;;;15.11;46.70
9462;BME280;4769;42.660;23.262;2023-04-26T11:59:38;93115.97;;;15.11;47.19
9462;BME280;4769;42.660;23.262;2023-04-26T12:02:05;93106.91;;;15.58;47.11
9462;BME280;4769;42.660;23.262;2023-04-26T12:04:30;93117.75;;;15.75;47.29
9462;BME280;4769;42.660;23.262;2023-04-26T12:06:57;93123.91;;;15.43;47.28
9462;BME280;4769;42.660;23.262;2023-04-26T12:09:23;93115.78;;;14.89;48.23
9462;BME280;4769;42.660;23.262;2023-04-26T12:11:55;93102.91;;;14.83;47.78
9462;BME280;4769;42.660;23.262;2023-04-26T12:14:21;93101.34;;;14.95;48.00
9462;BME280;4769;42.660;23.262;2023-04-26T12:16:47;93114.13;;;14.61;48.10
9462;BME280;4769;42.660;23.262;2023-04-26T12:19:13;93096.94;;;14.91;47.55
9462;BME280;4769;42.660;23.262;2023-04-26T12:21:42;93102.81;;;14.88;47.60
9462;BME280;4769;42.660;23.262;2023-04-26T12:24:20;93093.56;;;14.85;47.71
9462;BME280;4769;42.660;23.262;2023-04-26T12:26:46;93111.41;;;14.98;46.53
9462;BME280;4769;42.660;23.262;2023-04-26T12:29:14;93092.00;;;15.30;46.04
9462;BME280;4769;42.660;23.262;2023-04-26T12:31:40;93090.13;;;15.30;45.71
9462;BME280;4769;42.660;23.262;2023-04-26T12:34:05;93095.69;;;15.74;46.00
9462;BME280;4769;42.660;23.262;2023-04-26T12:36:31;93102.97;;;15.42;46.65
9462;BME280;4769;42.660;23.262;2023-04-26T12:38:57;93096.03;;;15.27;46.81
9462;BME280;4769;42.660;23.262;2023-04-26T12:41:22;93101.13;;;15.24;46.57
9462;BME280;4769;42.660;23.262;2023-04-26T12:43:48;93094.72;;;15.11;46.98
9462;BME280;4769;42.660;23.262;2023-04-26T12:46:17;93096.00;;;15.14;47.57
9462;BME280;4769;42.660;23.262;2023-04-26T12:48:43;93108.41;;;14.86;47.44
9462;BME280;4769;42.660;23.262;2023-04-26T12:51:08;93097.25;;;15.03;47.42
9462;BME280;4769;42.660;23.262;2023-04-26T12:53:34;93099.06;;;14.89;48.16
9462;BME280;4769;42.660;23.262;2023-04-26T12:56:00;93090.88;;;14.53;49.10
9462;BME280;4769;42.660;23.262;2023-04-26T12:58:25;93094.91;;;14.51;50.05
9462;BME280;4769;42.660;23.262;2023-04-26T13:00:51;93105.19;;;14.71;49.30
9462;BME280;4769;42.660;23.262;2023-04-26T13:03:19;93078.75;;;14.66;49.98
9462;BME280;4769;42.660;23.262;2023-04-26T13:05:45;93088.13;;;14.77;50.79
9462;BME280;4769;42.660;23.262;2023-04-26T13:08:11;93101.88;;;14.97;49.61
9462;BME280;4769;42.660;23.262;2023-04-26T13:10:36;93108.97;;;14.51;50.42
9462;BME280;4769;42.660;23.262;2023-04-26T13:13:02;93119.69;;;14.41;51.73
9462;BME280;4769;42.660;23.262;2023-04-26T13:15:28;93111.34;;;14.34;51.40
9462;BME280;4769;42.660;23.262;2023-04-26T13:17:54;93115.91;;;14.66;49.89